createdAt,value
2022-10-01T00:00:25.660Z,0.48
2022-10-01T00:01:42.722Z,0.86
2022-10-01T00:02:59.695Z,0.53
2022-10-01T00:04:16.669Z,0.63
2022-10-01T00:05:33.638Z,0.48
2022-10-01T00:06:50.708Z,0.68
2022-10-01T00:08:07.640Z,0.63
2022-10-01T00:09:24.711Z,0.49
2022-10-01T00:10:41.718Z,0.37
2022-10-01T00:11:58.688Z,0.35
2022-10-01T00:13:15.711Z,0.68
2022-10-01T00:14:33.052Z,0.39
2022-10-01T00:15:51.286Z,0.48
2022-10-01T00:17:09.338Z,0.28
2022-10-01T00:18:26.945Z,0.36
2022-10-01T00:19:43.669Z,0.42
2022-10-01T00:21:00.729Z,0.2
2022-10-01T00:22:17.690Z,0.24
2022-10-01T00:23:34.670Z,0.32
2022-10-01T00:24:51.751Z,0.12
2022-10-01T00:26:08.753Z,0.13
2022-10-01T00:27:26.779Z,0.24
2022-10-01T00:28:43.680Z,0.32
2022-10-01T00:30:00.696Z,0.35
2022-10-01T00:31:17.788Z,0.3
2022-10-01T00:32:34.688Z,0.32
2022-10-01T00:33:51.680Z,0.37
2022-10-01T00:35:08.700Z,0.37
2022-10-01T00:36:25.763Z,0.29
2022-10-01T00:37:42.720Z,0.37
2022-10-01T00:38:59.692Z,0
2022-10-01T00:40:16.727Z,0.33
2022-10-01T00:41:34.143Z,0.07
2022-10-01T00:42:50.715Z,0
2022-10-01T00:44:07.721Z,0
2022-10-01T00:45:24.707Z,0
2022-10-01T00:46:41.772Z,0
2022-10-01T00:47:58.728Z,0
2022-10-01T00:49:15.873Z,0
2022-10-01T00:50:32.731Z,0
2022-10-01T00:51:49.723Z,0
2022-10-01T00:53:06.745Z,0
2022-10-01T00:54:23.836Z,0
2022-10-01T00:55:40.773Z,0
2022-10-01T00:56:57.742Z,0
2022-10-01T00:58:14.712Z,0
2022-10-01T00:59:31.786Z,0
2022-10-01T01:00:49.836Z,0
2022-10-01T01:02:06.821Z,0
2022-10-01T01:03:23.744Z,0
2022-10-01T01:04:41.025Z,0
2022-10-01T01:05:58.726Z,0.24
2022-10-01T01:07:16.347Z,0.06
2022-10-01T01:08:33.763Z,0.1
2022-10-01T01:09:50.741Z,0.17
2022-10-01T01:11:07.741Z,0.21
2022-10-01T01:12:24.793Z,0.16
2022-10-01T01:13:41.726Z,0.19
2022-10-01T01:14:58.741Z,0.11
2022-10-01T01:16:15.858Z,0
2022-10-01T01:17:32.792Z,0
2022-10-01T01:18:49.760Z,0
2022-10-01T01:20:06.802Z,0
2022-10-01T01:21:23.785Z,0
2022-10-01T01:22:40.914Z,0
2022-10-01T01:23:57.843Z,0
2022-10-01T01:25:14.750Z,0
2022-10-01T01:26:31.831Z,0
2022-10-01T01:27:48.834Z,0
2022-10-01T01:29:05.847Z,0
2022-10-01T01:30:22.773Z,0
2022-10-01T01:31:39.846Z,0
2022-10-01T01:32:56.758Z,0
2022-10-01T01:34:13.822Z,0
2022-10-01T01:35:30.767Z,0
2022-10-01T01:36:47.776Z,0
2022-10-01T01:38:04.842Z,0.22
2022-10-01T01:39:22.189Z,0
2022-10-01T01:40:39.780Z,0
2022-10-01T01:41:56.808Z,0
2022-10-01T01:43:13.816Z,0
2022-10-01T01:44:30.829Z,0
2022-10-01T01:45:47.857Z,0
2022-10-01T01:47:04.778Z,0
2022-10-01T01:48:21.845Z,0
2022-10-01T01:49:38.853Z,0
2022-10-01T01:50:55.812Z,0
2022-10-01T01:52:12.805Z,0
2022-10-01T01:53:29.870Z,0
2022-10-01T01:54:46.837Z,0
2022-10-01T01:56:03.797Z,0
2022-10-01T01:57:21.652Z,0
2022-10-01T01:58:38.834Z,0
2022-10-01T01:59:56.113Z,0
2022-10-01T02:01:13.829Z,0
2022-10-01T02:02:30.894Z,0
2022-10-01T02:03:47.823Z,0
2022-10-01T02:05:04.853Z,0
2022-10-01T02:06:21.820Z,0
2022-10-01T02:07:38.827Z,0
2022-10-01T02:08:55.902Z,0
2022-10-01T02:10:12.863Z,0
2022-10-01T02:11:30.009Z,0
2022-10-01T02:12:46.822Z,0
2022-10-01T02:14:03.832Z,0
2022-10-01T02:15:20.923Z,0
2022-10-01T02:16:37.810Z,0
2022-10-01T02:17:54.834Z,0
2022-10-01T02:19:11.850Z,0
2022-10-01T02:20:28.892Z,0
2022-10-01T02:21:46.896Z,0.15
2022-10-01T02:23:03.852Z,0.17
2022-10-01T02:24:20.849Z,0
2022-10-01T02:25:37.911Z,0.2
2022-10-01T02:26:54.864Z,0
2022-10-01T02:28:12.005Z,0
2022-10-01T02:29:28.927Z,0.2
2022-10-01T02:30:46.813Z,0.13
2022-10-01T02:32:03.845Z,0.21
2022-10-01T02:33:20.860Z,0.25
2022-10-01T02:34:37.878Z,0.23
2022-10-01T02:35:54.890Z,0
2022-10-01T02:37:11.911Z,0.19
2022-10-01T02:38:28.851Z,0.24
2022-10-01T02:39:45.923Z,0.21
2022-10-01T02:41:02.874Z,0.14
2022-10-01T02:42:19.910Z,0.2
2022-10-01T02:43:40.669Z,0.35
2022-10-01T02:44:53.934Z,0
2022-10-01T02:46:11.480Z,0
2022-10-01T02:47:28.926Z,0
2022-10-01T02:48:45.880Z,0.1
2022-10-01T02:50:02.935Z,0.15
2022-10-01T02:51:19.882Z,0.3
2022-10-01T02:52:36.905Z,0.24
2022-10-01T02:53:53.879Z,0.14
2022-10-01T02:55:10.936Z,0.07
2022-10-01T02:56:27.913Z,0
2022-10-01T02:57:44.929Z,0
2022-10-01T02:59:01.937Z,0.54
2022-10-01T03:00:18.932Z,0.27
2022-10-01T03:01:36.206Z,0.37
2022-10-01T03:02:52.948Z,0.38
2022-10-01T03:04:09.934Z,0.47
2022-10-01T03:05:27.244Z,0.58
2022-10-01T03:06:44.890Z,0.17
2022-10-01T03:08:02.225Z,0.25
2022-10-01T03:09:19.896Z,0
2022-10-01T03:10:36.932Z,0.44
2022-10-01T03:11:53.972Z,0.45
2022-10-01T03:13:10.917Z,0.11
2022-10-01T03:14:27.911Z,0.12
2022-10-01T03:15:44.978Z,0.44
2022-10-01T03:17:01.979Z,0.53
2022-10-01T03:18:18.911Z,0.42
2022-10-01T03:19:36.965Z,0
2022-10-01T03:20:53.918Z,0.44
2022-10-01T03:22:10.955Z,0.39
2022-10-01T03:23:27.949Z,0.67
2022-10-01T03:24:44.919Z,0.24
2022-10-01T03:26:02.063Z,0.22
2022-10-01T03:27:18.995Z,0.15
2022-10-01T03:28:35.982Z,0.1
2022-10-01T03:29:52.941Z,0.28
2022-10-01T03:31:10.055Z,0.45
2022-10-01T03:32:26.950Z,0.15
2022-10-01T03:33:44.835Z,0
2022-10-01T03:35:02.185Z,0
2022-10-01T03:36:18.989Z,0
2022-10-01T03:37:35.966Z,0
2022-10-01T03:38:52.943Z,0
2022-10-01T03:40:09.976Z,0
2022-10-01T03:41:27.912Z,0
2022-10-01T03:42:44.988Z,0
2022-10-01T03:44:03.174Z,0
2022-10-01T03:45:19.976Z,0
2022-10-01T03:46:36.989Z,0
2022-10-01T03:47:55.121Z,0
2022-10-01T03:49:12.198Z,0
2022-10-01T03:50:29.399Z,0.19
2022-10-01T03:51:47.036Z,0
2022-10-01T03:53:04.867Z,0
2022-10-01T03:54:21.979Z,0
2022-10-01T03:55:40.217Z,0
2022-10-01T03:56:57.927Z,0.1
2022-10-01T03:58:14.999Z,0
2022-10-01T03:59:31.979Z,0.41
2022-10-01T04:00:49.050Z,0.1
2022-10-01T04:02:06.132Z,0.1
2022-10-01T04:03:23.002Z,0.29
2022-10-01T04:04:39.994Z,0.16
2022-10-01T04:05:57.002Z,0.29
2022-10-01T04:07:14.895Z,0.24
2022-10-01T04:08:32.004Z,0.24
2022-10-01T04:09:49.819Z,0.2
2022-10-01T04:11:07.068Z,0.19
2022-10-01T04:12:24.341Z,0.32
2022-10-01T04:13:41.032Z,0.2
2022-10-01T04:14:57.992Z,0.11
2022-10-01T04:16:15.080Z,0.22
2022-10-01T04:17:32.130Z,0.24
2022-10-01T04:18:49.078Z,0.3
2022-10-01T04:20:06.312Z,0.08
2022-10-01T04:21:23.050Z,0.23
2022-10-01T04:22:40.034Z,0.18
2022-10-01T04:23:58.060Z,0.55
2022-10-01T04:25:15.020Z,0.15
2022-10-01T04:26:32.048Z,0.3
2022-10-01T04:27:49.048Z,0.16
2022-10-01T04:29:06.097Z,0.36
2022-10-01T04:30:23.062Z,0
2022-10-01T04:31:40.116Z,0
2022-10-01T04:32:57.090Z,0
2022-10-01T04:34:14.851Z,0.23
2022-10-01T04:35:32.079Z,0
2022-10-01T04:36:49.220Z,0.2
2022-10-01T04:38:07.094Z,0.26
2022-10-01T04:39:25.126Z,0.33
2022-10-01T04:40:43.178Z,0.61
2022-10-01T04:42:00.052Z,0.47
2022-10-01T04:43:17.061Z,0.63
2022-10-01T04:44:34.407Z,0.43
2022-10-01T04:45:52.088Z,0
2022-10-01T04:47:10.301Z,0.66
2022-10-01T04:48:27.072Z,0.25
2022-10-01T04:49:44.111Z,0.1
2022-10-01T04:51:01.084Z,0.23
2022-10-01T04:52:18.899Z,0.26
2022-10-01T04:53:36.525Z,0
2022-10-01T04:54:54.113Z,0.27
2022-10-01T04:56:11.855Z,0.26
2022-10-01T04:57:29.110Z,0.18
2022-10-01T04:58:47.168Z,0.27
2022-10-01T05:00:04.192Z,0.27
2022-10-01T05:01:21.139Z,0.19
2022-10-01T05:02:38.130Z,0.34
2022-10-01T05:03:55.132Z,0.15
2022-10-01T05:05:12.341Z,0
2022-10-01T05:06:30.280Z,0.13
2022-10-01T05:07:47.188Z,0.28
2022-10-01T05:09:04.846Z,0.28
2022-10-01T05:10:23.579Z,0.89
2022-10-01T05:11:41.198Z,0.3
2022-10-01T05:13:04.295Z,0.58
2022-10-01T05:14:25.402Z,0.36
2022-10-01T05:15:43.210Z,0.3
2022-10-01T05:17:00.264Z,0.07
2022-10-01T05:18:17.110Z,0.18
2022-10-01T05:19:34.819Z,0.45
2022-10-01T05:20:52.744Z,0.22
2022-10-01T05:22:10.176Z,0.38
2022-10-01T05:23:27.166Z,0.22
2022-10-01T05:24:44.877Z,0.39
2022-10-01T05:26:02.883Z,0.19
2022-10-01T05:27:20.694Z,0.52
2022-10-01T05:28:38.935Z,0.44
2022-10-01T05:29:56.184Z,0.61
2022-10-01T05:31:14.254Z,0.31
2022-10-01T05:32:31.157Z,0.23
2022-10-01T05:33:48.836Z,0.31
2022-10-01T05:35:06.105Z,0.34
2022-10-01T05:36:23.119Z,0.82
2022-10-01T05:37:40.155Z,0.49
2022-10-01T05:38:57.161Z,0.73
2022-10-01T05:40:15.126Z,0.29
2022-10-01T05:41:32.412Z,0.14
2022-10-01T05:42:49.106Z,0.3
2022-10-01T05:44:06.144Z,0.22
2022-10-01T05:45:23.392Z,0
2022-10-01T05:46:40.179Z,0
2022-10-01T05:47:57.162Z,0.22
2022-10-01T05:49:14.838Z,0.25
2022-10-01T05:50:32.155Z,0.64
2022-10-01T05:51:50.170Z,0.68
2022-10-01T05:53:07.240Z,0.26
2022-10-01T05:54:24.128Z,0.06
2022-10-01T05:55:41.143Z,0
2022-10-01T05:56:58.175Z,0.4
2022-10-01T05:58:15.209Z,0.17
2022-10-01T05:59:32.315Z,0.25
2022-10-01T06:00:49.755Z,0.47
2022-10-01T06:02:07.270Z,0.66
2022-10-01T06:03:25.347Z,0.13
2022-10-01T06:04:42.160Z,0.23
2022-10-01T06:05:59.190Z,0.2
2022-10-01T06:07:16.179Z,0.19
2022-10-01T06:08:33.256Z,0
2022-10-01T06:09:50.585Z,0
2022-10-01T06:11:08.692Z,0
2022-10-01T06:12:25.272Z,0.23
2022-10-01T06:13:42.483Z,0.26
2022-10-01T06:15:00.210Z,0
2022-10-01T06:16:18.340Z,0
2022-10-01T06:17:35.211Z,0
2022-10-01T06:18:52.233Z,0
2022-10-01T06:20:09.325Z,0.54
2022-10-01T06:21:26.204Z,0.14
2022-10-01T06:22:43.192Z,0.24
2022-10-01T06:24:01.290Z,0
2022-10-01T06:25:18.271Z,0.27
2022-10-01T06:26:35.257Z,0.4
2022-10-01T06:27:52.253Z,0.39
2022-10-01T06:29:09.312Z,0.07
2022-10-01T06:30:26.241Z,0.48
2022-10-01T06:31:43.280Z,0.48
2022-10-01T06:33:00.239Z,0.71
2022-10-01T06:34:17.224Z,0.4
2022-10-01T06:35:35.701Z,0.29
2022-10-01T06:36:54.905Z,0.41
2022-10-01T06:38:13.285Z,0.19
2022-10-01T06:39:31.636Z,0.61
2022-10-01T06:40:50.511Z,0.23
2022-10-01T06:42:07.886Z,0.6
2022-10-01T06:43:26.538Z,0.45
2022-10-01T06:44:46.411Z,0.31
2022-10-01T06:46:05.463Z,0.32
2022-10-01T06:47:22.802Z,0
2022-10-01T06:48:40.737Z,0
2022-10-01T06:49:59.966Z,0
2022-10-01T06:51:18.354Z,0
2022-10-01T06:52:36.242Z,0.38
2022-10-01T06:53:53.277Z,0.57
2022-10-01T06:55:14.391Z,0.24
2022-10-01T06:56:27.279Z,0.25
2022-10-01T06:57:44.293Z,0.23
2022-10-01T06:59:01.232Z,0.42
2022-10-01T07:00:18.335Z,0.79
2022-10-01T07:01:35.583Z,0.73
2022-10-01T07:02:52.343Z,0.52
2022-10-01T07:04:09.300Z,1
2022-10-01T07:05:26.353Z,0.84
2022-10-01T07:06:43.305Z,0.58
2022-10-01T07:08:00.309Z,0.37
2022-10-01T07:09:17.244Z,0.79
2022-10-01T07:10:34.345Z,0.89
2022-10-01T07:11:51.296Z,0.23
2022-10-01T07:13:08.296Z,0.4
2022-10-01T07:14:25.297Z,0.58
2022-10-01T07:15:42.315Z,0.49
2022-10-01T07:16:59.280Z,0.89
2022-10-01T07:18:16.312Z,0.84
2022-10-01T07:19:33.357Z,0.66
2022-10-01T07:20:50.296Z,0.51
2022-10-01T07:22:07.303Z,0.84
2022-10-01T07:23:24.270Z,0.58
2022-10-01T07:24:41.277Z,0.1
2022-10-01T07:25:58.375Z,0.77
2022-10-01T07:27:15.329Z,1.04
2022-10-01T07:28:32.306Z,1.25
2022-10-01T07:29:49.307Z,0.75
2022-10-01T07:31:06.342Z,0.15
2022-10-01T07:32:23.337Z,0.66
2022-10-01T07:33:40.324Z,1.33
2022-10-01T07:34:57.368Z,0.81
2022-10-01T07:36:14.332Z,0.6
2022-10-01T07:37:31.309Z,0.6
2022-10-01T07:38:48.319Z,1.04
2022-10-01T07:40:07.446Z,0.46
2022-10-01T07:41:22.355Z,0.35
2022-10-01T07:42:39.311Z,0.37
2022-10-01T07:43:56.361Z,0.19
2022-10-01T07:45:13.347Z,0.68
2022-10-01T07:46:33.981Z,0.58
2022-10-01T07:47:47.363Z,0.52
2022-10-01T07:49:04.339Z,0.48
2022-10-01T07:50:21.437Z,0.34
2022-10-01T07:51:38.421Z,0.86
2022-10-01T07:52:55.382Z,0.73
2022-10-01T07:54:12.356Z,0.35
2022-10-01T07:55:30.389Z,0.29
2022-10-01T07:56:47.385Z,0.25
2022-10-01T07:58:04.359Z,0.06
2022-10-01T07:59:21.372Z,0.38
2022-10-01T08:00:38.375Z,0.31
2022-10-01T08:01:55.410Z,0.12
2022-10-01T08:03:12.374Z,0.66
2022-10-01T08:04:29.365Z,0.28
2022-10-01T08:05:46.398Z,0.52
2022-10-01T08:07:03.372Z,0.24
2022-10-01T08:08:20.362Z,0.36
2022-10-01T08:09:37.378Z,0.16
2022-10-01T08:10:54.733Z,0.16
2022-10-01T08:12:12.466Z,0.15
2022-10-01T08:13:29.660Z,0.28
2022-10-01T08:14:47.374Z,0.16
2022-10-01T08:16:04.386Z,0.49
2022-10-01T08:17:22.146Z,0.58
2022-10-01T08:18:38.390Z,0.64
2022-10-01T08:19:55.365Z,0.27
2022-10-01T08:21:12.404Z,0.39
2022-10-01T08:22:29.369Z,0.44
2022-10-01T08:23:46.417Z,0.83
2022-10-01T08:25:03.411Z,1.32
2022-10-01T08:26:20.382Z,1.35
2022-10-01T08:27:37.369Z,1.19
2022-10-01T08:28:54.437Z,0.74
2022-10-01T08:30:11.417Z,0.45
2022-10-01T08:31:30.075Z,0.15
2022-10-01T08:32:47.626Z,0.38
2022-10-01T08:34:06.250Z,0.49
2022-10-01T08:35:26.093Z,0.4
2022-10-01T08:36:45.678Z,1.16
2022-10-01T08:38:06.782Z,0.76
2022-10-01T08:39:26.646Z,1.04
2022-10-01T08:40:45.874Z,0.59
2022-10-01T08:42:07.804Z,0.57
2022-10-01T08:43:27.154Z,0.79
2022-10-01T08:44:45.804Z,0.63
2022-10-01T08:46:05.026Z,0.62
2022-10-01T08:47:25.505Z,0.6
2022-10-01T08:48:44.163Z,0.49
2022-10-01T08:50:03.201Z,0.66
2022-10-01T08:51:22.021Z,0.54
2022-10-01T08:52:41.697Z,0.28
2022-10-01T08:53:58.977Z,0.92
2022-10-01T08:55:18.884Z,1.33
2022-10-01T08:56:38.724Z,1.84
2022-10-01T08:57:58.058Z,0.94
2022-10-01T08:59:16.650Z,1.06
2022-10-01T09:00:35.768Z,1.43
2022-10-01T09:01:54.882Z,0.68
2022-10-01T09:03:14.918Z,1.53
2022-10-01T09:04:34.930Z,1.74
2022-10-01T09:05:52.908Z,1.59
2022-10-01T09:07:12.445Z,0.83
2022-10-01T09:08:31.039Z,0.88
2022-10-01T09:09:51.239Z,1.18
2022-10-01T09:11:10.727Z,1.27
2022-10-01T09:12:30.178Z,1.38
2022-10-01T09:13:50.357Z,0.91
2022-10-01T09:15:06.899Z,0.22
2022-10-01T09:16:26.851Z,0.72
2022-10-01T09:17:48.181Z,1.32
2022-10-01T09:19:07.057Z,2.03
2022-10-01T09:20:25.880Z,0.98
2022-10-01T09:21:44.534Z,1.8
2022-10-01T09:23:03.985Z,2.31
2022-10-01T09:24:23.572Z,0.81
2022-10-01T09:25:42.593Z,1.03
2022-10-01T09:27:00.287Z,1.56
2022-10-01T09:28:18.232Z,1.14
2022-10-01T09:29:38.128Z,1.88
2022-10-01T09:30:57.534Z,2.61
2022-10-01T09:32:16.049Z,1.61
2022-10-01T09:33:34.703Z,2.04
2022-10-01T09:34:55.164Z,1.72
2022-10-01T09:36:14.182Z,1.89
2022-10-01T09:37:33.267Z,1.71
2022-10-01T09:38:52.299Z,1.65
2022-10-01T09:40:10.987Z,1.69
2022-10-01T09:41:30.061Z,1.4
2022-10-01T09:42:49.989Z,1.74
2022-10-01T09:44:08.830Z,1.63
2022-10-01T09:45:28.453Z,1.29
2022-10-01T09:46:45.899Z,0.92
2022-10-01T09:48:04.349Z,1.24
2022-10-01T09:49:23.178Z,1.22
2022-10-01T09:50:43.572Z,1.19
2022-10-01T09:52:02.749Z,1.43
2022-10-01T09:53:22.676Z,1.28
2022-10-01T09:54:41.218Z,1.65
2022-10-01T09:56:00.036Z,1.03
2022-10-01T09:57:19.524Z,0.62
2022-10-01T09:58:37.219Z,1.06
2022-10-01T09:59:55.730Z,1
2022-10-01T10:01:15.059Z,1.38
2022-10-01T10:02:34.061Z,1.68
2022-10-01T10:03:52.659Z,1.41
2022-10-01T10:05:11.076Z,2.17
2022-10-01T10:06:29.037Z,1.89
2022-10-01T10:07:47.800Z,1.43
2022-10-01T10:09:06.440Z,1.4
2022-10-01T10:10:26.524Z,0.81
2022-10-01T10:11:45.176Z,0.56
2022-10-01T10:13:03.908Z,0.95
2022-10-01T10:14:22.502Z,1.31
2022-10-01T10:15:43.587Z,0.74
2022-10-01T10:17:01.682Z,0.88
2022-10-01T10:18:23.899Z,0.98
2022-10-01T10:19:39.074Z,0.85
2022-10-01T10:20:59.214Z,1.02
2022-10-01T10:22:17.696Z,1.05
2022-10-01T10:23:38.789Z,1.17
2022-10-01T10:24:57.100Z,1.06
2022-10-01T10:26:14.953Z,1.35
2022-10-01T10:27:33.140Z,1.3
2022-10-01T10:28:51.729Z,1.33
2022-10-01T10:30:10.091Z,1.07
2022-10-01T10:31:29.510Z,1.68
2022-10-01T10:32:47.082Z,1.1
2022-10-01T10:34:05.117Z,0.98
2022-10-01T10:35:23.038Z,1.5
2022-10-01T10:36:41.090Z,0.95
2022-10-01T10:38:00.903Z,1.35
2022-10-01T10:39:19.059Z,1.14
2022-10-01T10:40:37.035Z,1.26
2022-10-01T10:41:55.106Z,0.81
2022-10-01T10:43:13.030Z,1.25
2022-10-01T10:44:32.977Z,1.09
2022-10-01T10:45:51.375Z,0.78
2022-10-01T10:47:10.117Z,0.84
2022-10-01T10:48:28.118Z,1.54
2022-10-01T10:49:46.446Z,1.68
2022-10-01T10:51:07.442Z,1.22
2022-10-01T10:52:26.166Z,1
2022-10-01T10:53:43.624Z,0.95
2022-10-01T10:55:02.023Z,1.44
2022-10-01T10:56:21.134Z,1.33
2022-10-01T10:57:38.981Z,0.89
2022-10-01T10:58:57.244Z,1.47
2022-10-01T11:00:17.061Z,1.57
2022-10-01T11:01:35.259Z,0.99
2022-10-01T11:02:53.143Z,1.17
2022-10-01T11:04:10.963Z,1.61
2022-10-01T11:05:28.970Z,1.99
2022-10-01T11:06:47.290Z,1.22
2022-10-01T11:08:06.035Z,0.82
2022-10-01T11:09:23.878Z,1
2022-10-01T11:10:42.031Z,1.4
2022-10-01T11:12:01.163Z,0.88
2022-10-01T11:13:20.057Z,0.65
2022-10-01T11:14:38.138Z,1.24
2022-10-01T11:15:58.554Z,0.49
2022-10-01T11:17:18.377Z,1.13
2022-10-01T11:18:36.093Z,0.99
2022-10-01T11:19:54.583Z,0.59
2022-10-01T11:21:13.151Z,0.77
2022-10-01T11:22:34.296Z,0.39
2022-10-01T11:23:52.101Z,0.62
2022-10-01T11:25:11.167Z,0.8
2022-10-01T11:26:32.653Z,0.5
2022-10-01T11:27:51.939Z,1.02
2022-10-01T11:29:10.111Z,0.97
2022-10-01T11:30:28.233Z,0.74
2022-10-01T11:31:50.571Z,0.46
2022-10-01T11:33:09.914Z,0.37
2022-10-01T11:34:28.177Z,0.81
2022-10-01T11:35:48.217Z,0.39
2022-10-01T11:37:06.845Z,1.03
2022-10-01T11:38:27.021Z,0.65
2022-10-01T11:39:46.504Z,0.75
2022-10-01T11:41:04.117Z,0.5
2022-10-01T11:42:23.229Z,0.98
2022-10-01T11:43:41.104Z,0.46
2022-10-01T11:45:01.095Z,0.34
2022-10-01T11:46:20.913Z,0.5
2022-10-01T11:47:39.784Z,0.95
2022-10-01T11:48:58.703Z,0.76
2022-10-01T11:50:16.961Z,0.6
2022-10-01T11:51:35.680Z,0.24
2022-10-01T11:52:54.918Z,0.67
2022-10-01T11:54:14.100Z,0.57
2022-10-01T11:55:33.510Z,0.22
2022-10-01T11:56:54.954Z,0.53
2022-10-01T11:58:13.849Z,0.36
2022-10-01T11:59:32.183Z,0.15
2022-10-01T12:00:52.119Z,0.49
2022-10-01T12:02:12.840Z,0.52
2022-10-01T12:03:30.981Z,0.47
2022-10-01T12:04:50.996Z,0.87
2022-10-01T12:06:09.736Z,0.44
2022-10-01T12:07:29.821Z,0.34
2022-10-01T12:08:48.216Z,0.44
2022-10-01T12:10:08.333Z,0.53
2022-10-01T12:11:28.786Z,0.48
2022-10-01T12:12:46.536Z,0.7
2022-10-01T12:14:04.996Z,1.45
2022-10-01T12:15:24.171Z,1.64
2022-10-01T12:16:42.782Z,1.35
2022-10-01T12:18:02.885Z,1.76
2022-10-01T12:19:21.680Z,1.78
2022-10-01T12:20:41.537Z,1.03
2022-10-01T12:22:00.320Z,1.01
2022-10-01T12:23:20.479Z,1.28
2022-10-01T12:24:42.892Z,1.14
2022-10-01T12:26:01.603Z,1.08
2022-10-01T12:27:21.051Z,1.6
2022-10-01T12:28:40.054Z,0.83
2022-10-01T12:29:59.585Z,1.52
2022-10-01T12:31:19.750Z,1.99
2022-10-01T12:32:38.244Z,1.1
2022-10-01T12:33:56.752Z,1.31
2022-10-01T12:35:15.832Z,2.02
2022-10-01T12:36:34.226Z,2.08
2022-10-01T12:37:53.555Z,1.79
2022-10-01T12:39:12.293Z,1.97
2022-10-01T12:40:32.800Z,1.76
2022-10-01T12:41:52.342Z,2
2022-10-01T12:43:11.579Z,1.69
2022-10-01T12:44:30.268Z,1.74
2022-10-01T12:45:49.041Z,1.39
2022-10-01T12:47:07.665Z,2.48
2022-10-01T12:48:26.261Z,2.03
2022-10-01T12:49:54.654Z,1.65
2022-10-01T12:51:14.447Z,1.73
2022-10-01T12:52:31.838Z,0.93
2022-10-01T12:53:48.799Z,1.14
2022-10-01T12:55:05.882Z,1.3
2022-10-01T12:56:22.802Z,1.7
2022-10-01T12:57:39.818Z,1.57
2022-10-01T12:58:57.451Z,1.59
2022-10-01T13:00:14.856Z,1.7
2022-10-01T13:01:31.875Z,0.98
2022-10-01T13:02:48.831Z,2.06
2022-10-01T13:04:05.852Z,1.71
2022-10-01T13:05:22.877Z,1.85
2022-10-01T13:06:40.596Z,1.73
2022-10-01T13:07:57.840Z,1.51
2022-10-01T13:09:14.885Z,1.76
2022-10-01T13:10:33.151Z,2.02
2022-10-01T13:11:50.809Z,1.58
2022-10-01T13:13:07.835Z,0.92
2022-10-01T13:14:25.054Z,2.23
2022-10-01T13:15:41.945Z,1.97
2022-10-01T13:16:58.897Z,1.42
2022-10-01T13:18:16.035Z,2.01
2022-10-01T13:19:32.918Z,1.32
2022-10-01T13:20:49.890Z,1.35
2022-10-01T13:22:06.898Z,1.27
2022-10-01T13:23:23.837Z,1.76
2022-10-01T13:24:41.875Z,2.14
2022-10-01T13:25:58.934Z,2.14
2022-10-01T13:27:15.982Z,1.7
2022-10-01T13:28:33.859Z,2.14
2022-10-01T13:29:50.846Z,2.19
2022-10-01T13:31:07.941Z,2.13
2022-10-01T13:32:24.869Z,1.24
2022-10-01T13:33:42.377Z,2.65
2022-10-01T13:34:59.874Z,2.24
2022-10-01T13:36:16.926Z,2.09
2022-10-01T13:37:34.490Z,2.35
2022-10-01T13:38:51.903Z,1.9
2022-10-01T13:40:08.888Z,1.43
2022-10-01T13:41:25.942Z,1.65
2022-10-01T13:42:42.895Z,1.76
2022-10-01T13:43:59.969Z,1.88
2022-10-01T13:45:16.929Z,2.12
2022-10-01T13:46:34.226Z,1.48
2022-10-01T13:47:50.930Z,1.47
2022-10-01T13:49:07.924Z,1.93
2022-10-01T13:50:24.884Z,1.69
2022-10-01T13:51:41.912Z,2.11
2022-10-01T13:52:58.886Z,1.05
2022-10-01T13:54:18.670Z,1.68
2022-10-01T13:55:32.903Z,1.53
2022-10-01T13:56:49.901Z,1.06
2022-10-01T13:58:06.920Z,1.29
2022-10-01T13:59:23.964Z,1.56
2022-10-01T14:00:40.957Z,1.74
2022-10-01T14:01:58.021Z,1.3
2022-10-01T14:03:14.909Z,1.35
2022-10-01T14:04:31.929Z,2.02
2022-10-01T14:05:48.921Z,2.15
2022-10-01T14:07:05.989Z,2.29
2022-10-01T14:08:22.921Z,2.75
2022-10-01T14:09:39.956Z,2.31
2022-10-01T14:10:56.914Z,2.75
2022-10-01T14:12:14.144Z,1.58
2022-10-01T14:13:30.934Z,1.63
2022-10-01T14:14:47.978Z,1.75
2022-10-01T14:16:05.011Z,1.83
2022-10-01T14:17:21.963Z,1.03
2022-10-01T14:18:38.973Z,1.02
2022-10-01T14:19:55.929Z,1.69
2022-10-01T14:21:12.988Z,0.89
2022-10-01T14:22:29.965Z,1.05
2022-10-01T14:23:46.947Z,1.63
2022-10-01T14:25:03.996Z,1.41
2022-10-01T14:26:21.030Z,1.29
2022-10-01T14:27:37.958Z,1.69
2022-10-01T14:28:54.944Z,1.37
2022-10-01T14:30:12.004Z,1.16
2022-10-01T14:31:29.041Z,1.13
2022-10-01T14:32:46.084Z,1.01
2022-10-01T14:34:03.003Z,0.85
2022-10-01T14:35:20.065Z,0.9
2022-10-01T14:36:37.270Z,1
2022-10-01T14:37:54.053Z,1.31
2022-10-01T14:39:10.980Z,1.49
2022-10-01T14:40:27.986Z,1.65
2022-10-01T14:41:44.953Z,1.42
2022-10-01T14:43:02.069Z,1.34
2022-10-01T14:44:18.986Z,1.48
2022-10-01T14:45:36.002Z,1.26
2022-10-01T14:46:53.063Z,1.23
2022-10-01T14:48:09.994Z,1.86
2022-10-01T14:49:26.971Z,1.32
2022-10-01T14:50:48.411Z,1.07
2022-10-01T14:52:00.999Z,0.99
2022-10-01T14:53:18.028Z,1.12
2022-10-01T14:54:34.986Z,1.58
2022-10-01T14:55:52.054Z,0.85
2022-10-01T14:57:08.992Z,0.43
2022-10-01T14:58:26.025Z,1.23
2022-10-01T14:59:43.005Z,1.36
2022-10-01T15:00:59.999Z,1.27
2022-10-01T15:02:17.115Z,1.35
2022-10-01T15:03:34.026Z,1.31
2022-10-01T15:04:51.235Z,1.48
2022-10-01T15:06:08.044Z,0.74
2022-10-01T15:07:24.993Z,0.56
2022-10-01T15:08:42.030Z,0.97
2022-10-01T15:09:59.225Z,1.47
2022-10-01T15:17:02.128Z,1.6
2022-10-01T15:18:19.033Z,2.2
2022-10-01T15:19:36.033Z,2.12
2022-10-01T15:20:53.325Z,2
2022-10-01T15:22:11.030Z,1.96
2022-10-01T15:23:28.028Z,1.46
2022-10-01T15:24:45.085Z,1.14
2022-10-01T15:26:02.150Z,1.29
2022-10-01T15:27:19.038Z,1.17
2022-10-01T15:28:36.045Z,1.64
2022-10-01T15:29:56.185Z,1.34
2022-10-01T15:31:10.191Z,0.85
2022-10-01T15:32:27.062Z,1.42
2022-10-01T15:33:44.097Z,1.1
2022-10-01T15:35:01.064Z,1.26
2022-10-01T15:36:18.091Z,1.27
2022-10-01T15:37:35.802Z,1.07
2022-10-01T15:38:53.039Z,0.96
2022-10-01T15:40:10.106Z,0.76
2022-10-01T15:41:31.822Z,0.89
2022-10-01T15:42:45.084Z,1.44
2022-10-01T15:44:02.084Z,0.72
2022-10-01T15:45:19.122Z,0.67
2022-10-01T15:46:36.685Z,1.59
2022-10-01T15:47:53.089Z,1.45
2022-10-01T15:49:10.075Z,0.58
2022-10-01T15:50:27.077Z,0.67
2022-10-01T15:51:44.139Z,0.75
2022-10-01T15:53:01.088Z,0.89
2022-10-01T15:54:18.078Z,1
2022-10-01T15:55:35.797Z,0.88
2022-10-01T15:56:53.112Z,0.65
2022-10-01T15:58:10.105Z,0.92
2022-10-01T15:59:27.099Z,0.72
2022-10-01T16:00:44.193Z,0.9
2022-10-01T16:02:01.162Z,0.76
2022-10-01T16:03:18.085Z,0.69
2022-10-01T16:04:35.101Z,1.02
2022-10-01T16:05:52.122Z,0.9
2022-10-01T16:07:09.130Z,0.44
2022-10-01T16:08:26.134Z,1.04
2022-10-01T16:09:43.134Z,0.83
2022-10-01T16:11:00.139Z,0.91
2022-10-01T16:12:17.245Z,1
2022-10-01T16:13:34.102Z,1.13
2022-10-01T16:14:51.116Z,0.96
2022-10-01T16:16:08.146Z,1.54
2022-10-01T16:17:25.142Z,1.91
2022-10-01T16:18:42.113Z,1.72
2022-10-01T16:19:59.145Z,1.12
2022-10-01T16:21:16.126Z,1.02
2022-10-01T16:22:33.151Z,1.24
2022-10-01T16:23:50.136Z,1.41
2022-10-01T16:25:07.255Z,1.25
2022-10-01T16:26:24.141Z,1.75
2022-10-01T16:27:41.262Z,1.09
2022-10-01T16:28:58.145Z,1.28
2022-10-01T16:30:15.120Z,1.2
2022-10-01T16:31:32.333Z,0.96
2022-10-01T16:32:49.159Z,1.17
2022-10-01T16:34:06.194Z,1.29
2022-10-01T16:35:23.166Z,1.52
2022-10-01T16:36:40.152Z,0.88
2022-10-01T16:37:57.189Z,1.02
2022-10-01T16:39:14.140Z,0.52
2022-10-01T16:40:31.230Z,0.69
2022-10-01T16:41:56.791Z,0.51
2022-10-01T16:43:05.155Z,0.94
2022-10-01T16:44:22.175Z,1.21
2022-10-01T16:45:39.209Z,0.52
2022-10-01T16:46:56.180Z,0.59
2022-10-01T16:48:13.154Z,0.92
2022-10-01T16:49:30.470Z,0.91
2022-10-01T16:50:48.202Z,1.15
2022-10-01T16:52:05.177Z,0.65
2022-10-01T16:53:22.171Z,0.64
2022-10-01T16:54:39.217Z,0.42
2022-10-01T16:55:56.321Z,0.8
2022-10-01T16:57:13.217Z,0.44
2022-10-01T16:58:30.265Z,0.72
2022-10-01T16:59:47.200Z,0.49
2022-10-01T17:01:04.337Z,0.78
2022-10-01T17:02:21.267Z,0.36
2022-10-01T17:03:38.219Z,0.53
2022-10-01T17:04:55.291Z,0.89
2022-10-01T17:06:12.230Z,0.9
2022-10-01T17:07:29.307Z,0.64
2022-10-01T17:08:46.262Z,0.65
2022-10-01T17:10:03.413Z,0.83
2022-10-01T17:11:20.189Z,0.54
2022-10-01T17:12:37.624Z,0.52
2022-10-01T17:13:55.227Z,0.44
2022-10-01T17:15:12.613Z,0.37
2022-10-01T17:16:30.264Z,0.67
2022-10-01T17:17:48.307Z,0.57
2022-10-01T17:19:05.292Z,0.45
2022-10-01T17:20:22.203Z,0.21
2022-10-01T17:21:39.204Z,0.44
2022-10-01T17:22:56.204Z,0.6
2022-10-01T17:24:13.279Z,0.14
2022-10-01T17:25:30.240Z,0.43
2022-10-01T17:26:47.205Z,0.17
2022-10-01T17:28:04.305Z,0.27
2022-10-01T17:29:21.317Z,0.51
2022-10-01T17:30:39.044Z,0.55
2022-10-01T17:31:56.268Z,0.61
2022-10-01T17:33:13.243Z,0.37
2022-10-01T17:34:30.276Z,0.35
2022-10-01T17:35:47.286Z,0.45
2022-10-01T17:37:04.960Z,0.18
2022-10-01T17:38:22.230Z,0.59